Time;durP1;ratioP1;P1;durP2;ratioP2;P2;SDS_P1;SDS_P2;PMS_P1;PMS_P2;Temp;Humidity;BMP_temperature;BMP_pressure;BME280_temperature;BME280_humidity;BME280_pressure;Samples;Min_cycle;Max_cycle;Signal;HPM_P1;HPM_P2
2021/06/18 00:00:00;;;;;;;7.20;5.90;;;19.50;99.90;;;;;;5035355;28;20022;-82
2021/06/18 00:02:26;;;;;;;7.97;6.32;;;19.40;99.90;;;;;;5035079;28;20017;-81
2021/06/18 00:04:52;;;;;;;9.73;7.00;;;19.40;99.90;;;;;;5035371;28;20104;-79
2021/06/18 00:07:18;;;;;;;10.57;6.82;;;19.40;99.90;;;;;;5036042;28;20026;-81
2021/06/18 00:09:43;;;;;;;7.18;6.18;;;19.40;99.90;;;;;;5050866;28;20029;-80
2021/06/18 00:12:10;;;;;;;8.02;6.57;;;19.40;99.90;;;;;;5050301;28;20035;-78
2021/06/18 00:14:35;;;;;;;6.22;5.72;;;19.30;99.90;;;;;;5050720;28;20041;-79
2021/06/18 00:17:01;;;;;;;8.60;7.80;;;19.30;99.90;;;;;;5045429;28;20056;-80
2021/06/18 00:19:27;;;;;;;9.52;8.63;;;19.30;99.90;;;;;;5038570;28;20472;-81
2021/06/18 00:21:52;;;;;;;13.35;8.80;;;19.20;99.90;;;;;;5052088;28;20038;-77
2021/06/18 00:24:18;;;;;;;9.63;8.73;;;19.30;99.90;;;;;;5057800;28;20029;-80
2021/06/18 00:26:44;;;;;;;10.18;7.82;;;19.20;99.90;;;;;;5071903;28;20028;-81
2021/06/18 00:29:09;;;;;;;12.30;8.38;;;19.10;99.90;;;;;;5060987;28;20049;-78
2021/06/18 00:31:35;;;;;;;8.27;7.57;;;19.20;99.90;;;;;;5060194;28;20021;-77
2021/06/18 00:34:01;;;;;;;9.10;6.95;;;19.10;99.90;;;;;;5088448;28;20039;-80
2021/06/18 00:36:26;;;;;;;10.63;8.65;;;19.00;99.90;;;;;;5072250;28;20036;-78
2021/06/18 00:38:52;;;;;;;8.38;7.13;;;19.10;99.90;;;;;;5077119;28;20035;-79
2021/06/18 00:41:18;;;;;;;8.07;6.60;;;19.10;99.90;;;;;;5077101;28;20040;-80
2021/06/18 00:43:43;;;;;;;6.72;6.13;;;18.90;99.90;;;;;;5077481;28;20093;-80
2021/06/18 00:46:10;;;;;;;7.22;5.38;;;18.90;99.90;;;;;;5077846;28;20033;-79
2021/06/18 00:48:37;;;;;;;7.07;6.10;;;18.80;99.90;;;;;;5074355;28;20390;-81
2021/06/18 00:51:03;;;;;;;10.30;6.93;;;18.80;99.90;;;;;;5061983;28;20025;-80
2021/06/18 00:53:29;;;;;;;12.57;8.38;;;18.90;99.90;;;;;;5061732;28;20051;-78
2021/06/18 00:55:55;;;;;;;11.85;8.20;;;18.90;99.90;;;;;;5041955;28;20087;-82
2021/06/18 00:58:21;;;;;;;11.63;8.30;;;18.90;99.90;;;;;;5040194;28;20029;-82
2021/06/18 01:00:47;;;;;;;9.18;7.47;;;18.80;99.90;;;;;;5039564;28;20416;-80
2021/06/18 01:03:13;;;;;;;11.95;7.22;;;18.80;99.90;;;;;;5039699;28;20053;-79
2021/06/18 01:05:40;;;;;;;7.00;6.30;;;18.70;99.90;;;;;;5040558;28;20022;-82
2021/06/18 01:08:27;;;;;;;11.38;7.63;;;18.60;99.90;;;;;;5039796;28;20021;-79
2021/06/18 01:11:11;;;;;;;14.00;8.48;;;18.60;99.90;;;;;;5038230;28;20099;-81
2021/06/18 01:13:57;;;;;;;9.30;7.43;;;18.60;99.90;;;;;;5042510;28;20021;-79
2021/06/18 01:16:45;;;;;;;7.10;6.43;;;18.50;99.90;;;;;;5054582;28;20522;-79
2021/06/18 01:19:28;;;;;;;8.30;7.45;;;18.50;99.90;;;;;;5038378;28;20025;-81
2021/06/18 01:22:00;;;;;;;9.38;7.45;;;18.50;99.90;;;;;;5039011;28;20029;-79
2021/06/18 01:24:48;;;;;;;8.15;7.35;;;18.50;99.90;;;;;;5042377;28;20372;-80
2021/06/18 01:27:40;;;;;;;8.50;6.38;;;18.40;99.90;;;;;;5074664;28;20021;-80
2021/06/18 01:30:06;;;;;;;7.60;6.40;;;18.40;99.90;;;;;;5056355;28;20397;-79
2021/06/18 01:32:37;;;;;;;7.95;6.70;;;18.40;99.90;;;;;;5073420;28;20758;-80
2021/06/18 01:35:04;;;;;;;7.38;6.65;;;18.30;99.90;;;;;;5057926;28;20094;-77
2021/06/18 01:37:31;;;;;;;9.27;7.18;;;18.30;99.90;;;;;;5064995;28;20026;-79
2021/06/18 01:40:05;;;;;;;10.50;8.00;;;18.40;99.90;;;;;;5055081;28;20020;-78
2021/06/18 01:42:34;;;;;;;9.32;8.32;;;18.30;99.90;;;;;;5055628;28;20028;-78
2021/06/18 01:45:07;;;;;;;9.68;8.77;;;18.30;99.90;;;;;;5056447;28;20510;-80
2021/06/18 01:47:33;;;;;;;13.73;8.63;;;18.20;99.90;;;;;;5063564;28;20025;-80
2021/06/18 01:50:01;;;;;;;11.35;8.02;;;18.20;99.90;;;;;;5064708;28;20487;-80
2021/06/18 01:52:28;;;;;;;11.23;8.63;;;18.20;99.90;;;;;;5067561;28;20017;-77
2021/06/18 01:54:55;;;;;;;11.23;8.05;;;18.10;99.90;;;;;;5060130;28;20036;-78
2021/06/18 01:57:23;;;;;;;10.52;8.73;;;18.10;99.90;;;;;;5042220;28;20022;-82
2021/06/18 01:59:52;;;;;;;11.85;9.38;;;18.10;99.90;;;;;;5040182;28;20053;-80
2021/06/18 02:02:19;;;;;;;9.68;8.27;;;18.10;99.90;;;;;;5040076;28;20026;-82
2021/06/18 02:04:47;;;;;;;9.95;7.47;;;18.10;99.90;;;;;;5054348;28;20029;-79
2021/06/18 02:07:14;;;;;;;9.30;7.20;;;18.00;99.90;;;;;;5039188;28;20025;-81
2021/06/18 02:09:43;;;;;;;14.95;7.72;;;18.00;99.90;;;;;;5039156;28;20098;-80
2021/06/18 02:12:10;;;;;;;8.18;7.38;;;18.00;99.90;;;;;;5053750;28;20435;-81
2021/06/18 02:14:38;;;;;;;7.13;6.43;;;18.00;99.90;;;;;;5038452;28;20018;-80
2021/06/18 02:17:05;;;;;;;7.78;6.97;;;18.00;99.90;;;;;;5038234;28;20044;-81
2021/06/18 02:19:33;;;;;;;11.23;7.60;;;18.00;99.90;;;;;;5037319;28;20021;-81
2021/06/18 02:21:59;;;;;;;9.98;8.57;;;18.00;99.90;;;;;;5037503;28;20022;-79
2021/06/18 02:24:27;;;;;;;9.85;8.82;;;18.00;99.90;;;;;;5042718;28;20025;-79
2021/06/18 02:26:54;;;;;;;11.10;9.60;;;18.10;99.90;;;;;;5071788;28;20032;-81
2021/06/18 02:29:20;;;;;;;11.07;9.98;;;18.10;99.90;;;;;;5068494;28;20033;-79
2021/06/18 02:31:48;;;;;;;9.27;8.30;;;18.10;99.90;;;;;;5070065;28;20025;-78
2021/06/18 02:34:14;;;;;;;8.35;7.55;;;18.00;99.90;;;;;;5075058;28;20029;-80
2021/06/18 02:36:41;;;;;;;9.75;7.85;;;17.90;99.90;;;;;;5075871;28;20029;-80
2021/06/18 02:39:10;;;;;;;8.52;7.70;;;17.90;99.90;;;;;;5074518;28;20039;-79
2021/06/18 02:41:37;;;;;;;9.73;8.13;;;17.80;99.90;;;;;;5070436;28;20096;-78
2021/06/18 02:44:03;;;;;;;11.02;8.70;;;17.80;99.90;;;;;;5071489;28;20021;-79
2021/06/18 02:46:47;;;;;;;10.00;8.45;;;17.80;99.90;;;;;;5072790;28;20425;-82
2021/06/18 02:49:15;;;;;;;13.13;11.35;;;17.60;99.90;;;;;;5086985;28;20029;-78
2021/06/18 02:51:54;;;;;;;13.02;11.70;;;17.70;99.90;;;;;;5071995;28;20041;-79
2021/06/18 02:54:44;;;;;;;14.98;12.30;;;17.90;99.90;;;;;;5069928;28;20055;-81
2021/06/18 02:57:17;;;;;;;14.85;12.70;;;18.10;99.90;;;;;;5069419;28;20048;-82
2021/06/18 03:00:05;;;;;;;17.55;13.73;;;18.20;99.90;;;;;;5061438;28;20025;-80
2021/06/18 03:02:35;;;;;;;16.17;12.77;;;18.30;99.90;;;;;;5058542;28;20468;-81
2021/06/18 03:05:06;;;;;;;16.67;12.32;;;18.40;99.90;;;;;;5057370;28;20060;-80
2021/06/18 03:07:34;;;;;;;18.77;11.88;;;18.30;99.90;;;;;;5057536;28;20021;-80
2021/06/18 03:10:06;;;;;;;13.35;12.05;;;18.30;99.90;;;;;;5057145;28;20506;-81
2021/06/18 03:12:33;;;;;;;;;;;18.30;99.90;;;;;;5058037;28;20498;-78
2021/06/18 03:15:06;;;;;;;14.20;11.98;;;18.30;99.90;;;;;;5057255;28;19951;-82
2021/06/18 03:17:35;;;;;;;19.92;12.73;;;18.30;99.90;;;;;;5057012;28;20021;-80
2021/06/18 03:20:06;;;;;;;14.38;12.63;;;18.30;99.90;;;;;;5057573;28;20036;-80
2021/06/18 03:22:33;;;;;;;12.80;11.07;;;18.20;99.90;;;;;;5058839;28;20129;-80
2021/06/18 03:25:02;;;;;;;14.60;10.60;;;17.90;99.90;;;;;;5058470;28;20395;-80
2021/06/18 03:27:30;;;;;;;13.75;11.02;;;17.90;99.90;;;;;;5069131;28;20112;-78
2021/06/18 03:29:56;;;;;;;12.60;11.38;;;18.00;99.90;;;;;;5068543;28;20084;-78
2021/06/18 03:32:24;;;;;;;14.18;10.90;;;18.10;99.90;;;;;;5068346;28;20092;-79
2021/06/18 03:34:51;;;;;;;13.35;11.50;;;18.10;99.90;;;;;;5064900;28;20033;-77
2021/06/18 03:37:18;;;;;;;13.00;11.50;;;18.20;99.90;;;;;;5064331;28;20021;-79
2021/06/18 03:39:43;;;;;;;14.48;12.43;;;18.10;99.90;;;;;;5054606;28;20036;-79
2021/06/18 03:42:10;;;;;;;13.75;11.68;;;18.10;99.90;;;;;;5057375;28;20032;-81
2021/06/18 03:44:36;;;;;;;13.27;10.80;;;18.00;99.90;;;;;;5047981;28;20051;-79
2021/06/18 03:47:04;;;;;;;14.35;11.60;;;18.00;99.90;;;;;;5048440;28;20034;-77
2021/06/18 03:49:30;;;;;;;12.32;11.15;;;18.10;99.90;;;;;;5051026;28;20388;-77
2021/06/18 03:51:56;;;;;;;13.85;11.02;;;18.00;99.90;;;;;;5050116;28;20468;-79
2021/06/18 03:54:23;;;;;;;16.02;11.52;;;18.10;99.90;;;;;;5035647;28;20086;-78
2021/06/18 03:56:49;;;;;;;13.00;11.73;;;18.20;99.90;;;;;;5035648;28;20048;-78
2021/06/18 03:59:17;;;;;;;16.55;12.75;;;18.20;99.90;;;;;;5034639;28;20112;-79
2021/06/18 04:01:45;;;;;;;15.38;11.65;;;18.30;99.90;;;;;;5033838;28;20025;-80
2021/06/18 04:04:11;;;;;;;20.00;11.95;;;18.10;99.90;;;;;;5033771;28;20091;-79
2021/06/18 04:06:39;;;;;;;12.57;11.02;;;17.90;99.90;;;;;;5039875;28;20426;-77
2021/06/18 04:09:05;;;;;;;12.73;10.98;;;18.00;99.90;;;;;;5044751;28;20538;-81
2021/06/18 04:11:31;;;;;;;12.55;11.25;;;18.10;99.90;;;;;;5036222;28;20021;-77
2021/06/18 04:13:57;;;;;;;12.20;11.00;;;18.10;99.90;;;;;;5041927;28;20136;-80
2021/06/18 04:16:23;;;;;;;15.40;11.25;;;18.20;99.90;;;;;;5054413;28;20479;-78
2021/06/18 04:18:50;;;;;;;11.80;10.68;;;18.10;99.90;;;;;;5031140;28;20117;-74
2021/06/18 04:21:20;;;;;;;13.40;10.65;;;18.40;99.90;;;;;;5029735;28;20537;-74
2021/06/18 04:23:46;;;;;;;14.32;12.18;;;18.60;99.90;;;;;;5038265;28;20025;-75
2021/06/18 04:26:12;;;;;;;12.15;10.52;;;18.50;99.90;;;;;;5050771;28;20578;-73
2021/06/18 04:28:39;;;;;;;14.80;11.45;;;18.60;99.90;;;;;;5050412;28;20017;-73
2021/06/18 04:31:05;;;;;;;14.82;11.45;;;18.50;99.90;;;;;;5050065;28;20112;-74
2021/06/18 04:33:32;;;;;;;14.10;11.43;;;18.70;99.90;;;;;;5050466;28;20072;-74
2021/06/18 04:35:57;;;;;;;13.93;11.68;;;18.60;99.90;;;;;;5042717;28;20021;-74
2021/06/18 04:38:23;;;;;;;16.42;11.93;;;18.70;99.90;;;;;;5030442;28;20033;-74
2021/06/18 04:40:50;;;;;;;16.90;12.80;;;18.70;99.90;;;;;;5030168;28;20099;-73
2021/06/18 04:43:16;;;;;;;15.77;12.18;;;18.70;99.90;;;;;;5030230;28;20076;-72
2021/06/18 10:46:39;;;;;;;4.10;3.70;;;33.60;78.80;;;;;;5082462;22;20538;-73
2021/06/18 10:49:11;;;;;;;6.00;3.38;;;34.10;74.40;;;;;;5060037;28;20066;-72
2021/06/18 10:51:57;;;;;;;6.07;3.70;;;34.00;75.10;;;;;;5059116;28;20020;-72
2021/06/18 10:54:44;;;;;;;6.05;3.95;;;34.30;73.30;;;;;;5068398;28;20532;-73
2021/06/18 10:57:16;;;;;;;5.07;3.45;;;34.20;72.90;;;;;;5032566;28;20041;-72
2021/06/18 10:59:49;;;;;;;6.43;4.07;;;34.00;72.20;;;;;;5031427;28;20017;-72
2021/06/18 11:02:24;;;;;;;6.10;3.10;;;33.90;72.40;;;;;;5032177;28;20041;-72
2021/06/18 11:04:52;;;;;;;5.88;3.10;;;34.20;68.60;;;;;;5039457;28;20037;-73
2021/06/18 11:07:28;;;;;;;6.28;3.00;;;34.30;67.00;;;;;;5051907;28;20104;-73
2021/06/18 11:09:59;;;;;;;3.33;2.78;;;34.50;67.60;;;;;;5043129;28;20483;-72
2021/06/18 11:12:24;;;;;;;5.57;2.47;;;35.00;62.00;;;;;;5052446;28;20394;-73
2021/06/18 11:14:54;;;;;;;3.33;2.70;;;34.80;60.50;;;;;;5051980;28;20046;-73
2021/06/18 11:17:40;;;;;;;2.97;2.67;;;35.10;60.00;;;;;;5052462;28;20025;-72
2021/06/18 11:20:06;;;;;;;6.07;2.78;;;35.20;59.80;;;;;;5056143;28;20028;-72
2021/06/18 11:22:51;;;;;;;3.20;2.90;;;35.10;60.40;;;;;;5072123;28;20036;-72
2021/06/18 11:25:42;;;;;;;7.18;2.60;;;35.20;59.20;;;;;;5071612;28;20020;-72
2021/06/18 11:28:26;;;;;;;3.10;2.47;;;35.30;60.30;;;;;;5071841;28;20031;-72
2021/06/18 11:30:59;;;;;;;4.28;2.65;;;35.60;58.80;;;;;;5071356;28;20551;-73
2021/06/18 11:33:47;;;;;;;3.08;2.78;;;35.60;57.10;;;;;;5072296;28;20025;-74
2021/06/18 11:36:21;;;;;;;2.50;2.30;;;36.10;59.30;;;;;;5052716;28;20545;-73
2021/06/18 11:38:58;;;;;;;5.53;2.40;;;36.30;55.90;;;;;;5051701;28;20052;-73
2021/06/18 11:41:26;;;;;;;2.88;2.67;;;36.30;56.20;;;;;;5051343;28;20024;-73
2021/06/18 11:43:54;;;;;;;2.95;2.75;;;36.00;58.80;;;;;;5052108;28;20116;-73
2021/06/18 11:46:22;;;;;;;2.40;2.30;;;35.70;55.00;;;;;;5051729;28;20116;-72
2021/06/18 11:48:47;;;;;;;4.00;2.63;;;35.50;55.30;;;;;;5051459;28;20162;-74
2021/06/18 11:51:27;;;;;;;5.40;3.28;;;35.90;55.30;;;;;;5052243;28;20017;-74
2021/06/18 11:53:53;;;;;;;5.28;3.15;;;36.10;56.00;;;;;;5054768;28;20025;-73
2021/06/18 11:56:19;;;;;;;7.60;2.83;;;36.40;55.30;;;;;;5052201;28;20032;-74
2021/06/18 11:58:47;;;;;;;2.72;2.40;;;36.90;56.20;;;;;;5052448;28;20082;-74
2021/06/18 12:01:21;;;;;;;4.13;2.70;;;36.90;54.70;;;;;;5050591;28;20025;-73
2021/06/18 12:03:53;;;;;;;4.43;3.20;;;37.20;55.30;;;;;;5051793;28;20025;-74
2021/06/18 12:06:38;;;;;;;3.95;2.95;;;36.80;53.70;;;;;;5045143;28;20025;-73
2021/06/18 12:09:22;;;;;;;5.95;3.42;;;36.60;54.10;;;;;;5051409;28;20100;-73
2021/06/18 12:11:59;;;;;;;2.97;2.70;;;36.00;55.00;;;;;;5051795;28;20021;-74
2021/06/18 12:14:32;;;;;;;5.93;3.42;;;35.60;55.10;;;;;;5051257;28;20108;-74
2021/06/18 12:16:58;;;;;;;3.53;3.00;;;34.90;56.20;;;;;;5056182;28;20017;-73
2021/06/18 12:19:42;;;;;;;3.17;2.95;;;34.90;56.80;;;;;;5061847;28;20390;-73
2021/06/18 12:22:15;;;;;;;6.72;3.08;;;35.10;56.20;;;;;;5055502;28;20546;-75
2021/06/18 12:24:42;;;;;;;3.63;3.13;;;35.80;56.30;;;;;;5052981;28;20120;-75
2021/06/18 12:27:16;;;;;;;5.15;3.25;;;36.00;55.10;;;;;;5068631;28;20471;-72
2021/06/18 12:29:52;;;;;;;3.80;3.42;;;36.10;56.50;;;;;;5075310;28;20041;-71
2021/06/18 12:32:18;;;;;;;5.57;3.17;;;36.40;55.50;;;;;;5075273;28;20055;-74
2021/06/18 12:35:08;;;;;;;7.18;3.47;;;36.50;56.00;;;;;;5074382;28;20055;-74
2021/06/18 12:37:36;;;;;;;3.42;3.10;;;36.90;56.30;;;;;;5050369;28;20041;-73
2021/06/18 12:40:06;;;;;;;4.57;3.10;;;36.30;56.80;;;;;;5054882;28;20025;-73
2021/06/18 12:42:47;;;;;;;5.60;3.50;;;36.50;56.90;;;;;;5069132;28;20033;-72
2021/06/18 12:45:14;;;;;;;7.97;3.08;;;36.80;56.10;;;;;;5060403;28;20033;-72
2021/06/18 12:47:42;;;;;;;5.28;2.95;;;36.80;56.30;;;;;;5055134;28;20047;-73
2021/06/18 12:50:31;;;;;;;4.50;3.30;;;37.20;55.20;;;;;;5053990;28;20021;-73
2021/06/18 12:53:00;;;;;;;4.28;2.95;;;37.10;55.30;;;;;;5054804;28;20479;-73
2021/06/18 12:55:34;;;;;;;4.60;3.10;;;37.40;56.60;;;;;;5034878;28;20368;-73
2021/06/18 12:58:08;;;;;;;4.18;3.25;;;37.50;54.20;;;;;;5035027;28;20120;-73
2021/06/18 13:00:55;;;;;;;3.13;2.83;;;37.60;54.30;;;;;;5034137;28;20101;-73
2021/06/18 13:03:32;;;;;;;5.78;3.15;;;37.70;53.40;;;;;;5034365;28;20167;-73
2021/06/18 13:06:00;;;;;;;8.27;3.50;;;38.00;54.40;;;;;;5034624;28;20022;-72
2021/06/18 13:08:26;;;;;;;3.90;2.97;;;37.60;53.00;;;;;;5029464;28;20067;-73
2021/06/18 13:10:52;;;;;;;3.00;2.80;;;37.70;53.10;;;;;;5039598;28;20431;-72
2021/06/18 13:13:26;;;;;;;5.07;3.08;;;37.60;53.80;;;;;;5054414;28;20394;-73
2021/06/18 13:15:53;;;;;;;5.32;3.03;;;37.60;53.10;;;;;;5053833;28;20025;-72
2021/06/18 13:18:19;;;;;;;6.13;2.80;;;38.00;54.50;;;;;;5054338;28;20461;-73
2021/06/18 13:20:45;;;;;;;5.75;3.28;;;38.20;53.10;;;;;;5053281;28;20475;-72
2021/06/18 13:23:25;;;;;;;8.65;3.10;;;38.20;51.60;;;;;;5053912;28;20029;-72
2021/06/18 13:26:05;;;;;;;7.72;3.90;;;38.00;51.10;;;;;;5051895;28;20020;-73
2021/06/18 13:28:46;;;;;;;6.07;2.92;;;37.90;52.30;;;;;;5053665;28;20021;-72
2021/06/18 13:31:23;;;;;;;7.10;3.17;;;37.70;51.40;;;;;;5067447;28;20386;-74
2021/06/18 13:33:52;;;;;;;6.05;3.28;;;37.30;51.50;;;;;;5074023;28;20025;-72
2021/06/18 13:36:25;;;;;;;7.72;2.92;;;37.80;52.00;;;;;;5073241;28;20029;-72
2021/06/18 13:38:52;;;;;;;3.17;2.90;;;38.00;52.00;;;;;;5073922;28;20032;-72
2021/06/18 13:41:17;;;;;;;6.95;2.85;;;37.90;51.10;;;;;;5064369;28;20079;-74
2021/06/18 13:43:43;;;;;;;4.32;2.95;;;37.30;52.50;;;;;;5054336;28;20029;-73
2021/06/18 13:46:09;;;;;;;12.40;3.38;;;37.10;53.50;;;;;;5054087;28;20112;-73
2021/06/18 13:48:34;;;;;;;3.35;2.80;;;37.20;53.30;;;;;;5054168;28;20025;-73
2021/06/18 13:51:00;;;;;;;6.32;2.92;;;37.40;52.50;;;;;;5053339;28;20036;-73
2021/06/18 13:53:26;;;;;;;7.55;3.28;;;36.90;52.90;;;;;;5053020;28;20035;-74
2021/06/18 13:55:55;;;;;;;5.80;3.42;;;37.20;52.90;;;;;;5053484;28;20082;-74
2021/06/18 13:58:21;;;;;;;3.00;2.70;;;36.80;53.00;;;;;;5054021;28;20040;-74
2021/06/18 14:00:48;;;;;;;5.53;3.40;;;36.70;54.00;;;;;;5052628;28;20032;-73
2021/06/18 14:03:14;;;;;;;6.47;3.42;;;37.00;54.80;;;;;;5052774;28;20029;-73
2021/06/18 14:05:39;;;;;;;7.90;3.25;;;37.30;53.70;;;;;;5052688;28;20025;-73
2021/06/18 14:08:05;;;;;;;4.18;3.20;;;36.70;53.60;;;;;;5053014;28;20052;-73
2021/06/18 14:10:31;;;;;;;3.88;3.15;;;36.20;54.50;;;;;;5052663;28;20029;-74
2021/06/18 14:12:57;;;;;;;7.38;3.33;;;36.30;54.60;;;;;;5053066;28;20021;-73
2021/06/18 14:15:24;;;;;;;7.85;3.63;;;36.30;54.30;;;;;;5053235;28;20079;-74
2021/06/18 14:17:51;;;;;;;5.43;3.60;;;36.20;54.40;;;;;;5051907;28;20029;-73
2021/06/18 14:20:17;;;;;;;6.20;3.40;;;36.50;53.70;;;;;;5052061;28;20033;-72
2021/06/18 14:22:43;;;;;;;5.57;3.65;;;36.60;53.80;;;;;;5053292;28;21115;-73
2021/06/18 14:25:09;;;;;;;7.53;3.63;;;36.90;53.30;;;;;;5053069;28;20029;-73
2021/06/18 14:27:35;;;;;;;6.28;3.25;;;37.20;52.20;;;;;;5052904;28;20101;-74
2021/06/18 14:30:02;;;;;;;7.78;3.40;;;37.00;52.60;;;;;;5056560;28;20048;-74
2021/06/18 14:32:28;;;;;;;7.25;3.20;;;37.20;54.30;;;;;;5066418;28;20393;-74
2021/06/18 14:34:53;;;;;;;4.65;3.45;;;37.00;52.70;;;;;;5052620;28;20021;-73
2021/06/18 14:37:19;;;;;;;3.80;2.88;;;37.40;53.00;;;;;;5051923;28;20025;-72
2021/06/18 14:39:45;;;;;;;6.60;3.50;;;37.70;53.30;;;;;;5049637;28;20029;-73
2021/06/18 14:42:11;;;;;;;11.57;3.60;;;37.60;52.50;;;;;;5052864;28;20402;-74
2021/06/18 14:44:38;;;;;;;7.72;3.47;;;37.40;53.00;;;;;;5052557;28;20046;-73
2021/06/18 14:47:05;;;;;;;6.35;3.40;;;37.50;52.50;;;;;;5051607;28;20029;-72
2021/06/18 14:49:31;;;;;;;4.25;3.10;;;37.60;52.00;;;;;;5051642;28;20032;-72
2021/06/18 14:51:57;;;;;;;3.28;2.97;;;37.60;52.60;;;;;;5052187;28;20455;-74
2021/06/18 14:54:31;;;;;;;7.25;3.50;;;37.60;52.90;;;;;;5052277;28;20090;-73
2021/06/18 14:56:57;;;;;;;4.28;3.40;;;37.80;52.10;;;;;;5044467;28;20033;-74
2021/06/18 14:59:22;;;;;;;5.18;3.10;;;37.80;51.80;;;;;;5051687;28;20025;-75
2021/06/18 15:01:48;;;;;;;4.97;2.95;;;38.10;52.20;;;;;;5052084;28;20041;-73
2021/06/18 15:04:14;;;;;;;4.57;3.20;;;38.00;52.40;;;;;;5051512;28;20025;-73
2021/06/18 15:06:39;;;;;;;4.60;3.45;;;37.90;52.40;;;;;;5051787;28;20017;-72
2021/06/18 15:09:05;;;;;;;5.50;3.53;;;37.80;52.40;;;;;;5052035;28;20452;-72
2021/06/18 15:11:32;;;;;;;7.57;3.50;;;37.10;51.70;;;;;;5050881;28;20355;-77
2021/06/18 15:13:58;;;;;;;8.63;3.60;;;36.80;52.50;;;;;;5051540;28;20035;-75
2021/06/18 15:16:23;;;;;;;5.95;3.35;;;37.20;52.60;;;;;;5041590;28;20029;-73
2021/06/18 15:18:49;;;;;;;4.35;3.30;;;37.40;52.10;;;;;;5039870;28;20047;-76
2021/06/18 15:21:15;;;;;;;9.23;3.85;;;36.90;52.50;;;;;;5035158;28;20033;-74
2021/06/18 15:23:40;;;;;;;9.57;3.78;;;37.10;52.40;;;;;;5041719;28;20021;-74
2021/06/18 15:26:06;;;;;;;5.40;3.35;;;37.20;52.30;;;;;;5037304;28;20411;-72
2021/06/18 15:28:32;;;;;;;7.88;3.30;;;37.50;54.00;;;;;;5043011;28;20070;-74
2021/06/18 15:30:59;;;;;;;7.00;3.20;;;37.60;51.40;;;;;;5042899;28;20033;-73
2021/06/18 15:33:25;;;;;;;5.28;3.85;;;37.00;52.20;;;;;;5037038;28;20055;-75
2021/06/18 15:35:51;;;;;;;5.70;3.08;;;36.80;51.60;;;;;;5032403;28;20040;-73
2021/06/18 15:38:18;;;;;;;7.80;3.70;;;37.10;52.50;;;;;;5032665;28;20020;-72
2021/06/18 15:40:44;;;;;;;5.07;3.38;;;37.30;52.40;;;;;;5039265;28;20024;-74
2021/06/18 15:43:09;;;;;;;6.63;3.80;;;37.70;51.70;;;;;;5038428;28;20025;-74
2021/06/18 15:45:35;;;;;;;12.07;3.25;;;37.30;50.20;;;;;;5040596;28;20620;-73
2021/06/18 15:48:04;;;;;;;7.25;3.28;;;36.80;52.80;;;;;;5035567;28;20017;-74
2021/06/18 15:50:30;;;;;;;5.10;3.05;;;37.00;52.00;;;;;;5039131;28;20041;-73
2021/06/18 15:52:56;;;;;;;7.00;3.47;;;37.20;53.70;;;;;;5037824;28;20050;-73
2021/06/18 15:55:22;;;;;;;4.90;3.13;;;37.30;50.30;;;;;;5040550;28;20040;-73
2021/06/18 15:57:49;;;;;;;2.70;2.50;;;36.60;51.50;;;;;;5037413;28;20029;-72
2021/06/18 16:00:16;;;;;;;10.38;3.40;;;36.80;52.30;;;;;;5038620;28;20021;-71
2021/06/18 16:02:41;;;;;;;5.47;3.13;;;37.00;52.40;;;;;;5040117;28;20029;-71
2021/06/18 16:05:08;;;;;;;4.13;3.22;;;36.90;51.90;;;;;;5042518;28;20021;-74
2021/06/18 16:07:34;;;;;;;7.72;3.25;;;36.90;50.90;;;;;;5051245;28;20105;-73
2021/06/18 16:10:00;;;;;;;7.53;3.67;;;36.60;51.70;;;;;;5050458;28;20067;-72
2021/06/18 16:12:26;;;;;;;4.75;3.00;;;36.50;51.80;;;;;;5051063;28;20028;-74
2021/06/18 16:14:52;;;;;;;3.88;3.22;;;36.40;51.90;;;;;;5052395;28;20025;-73
2021/06/18 16:17:17;;;;;;;7.22;3.00;;;36.50;51.40;;;;;;5052175;28;20075;-75
2021/06/18 16:19:44;;;;;;;5.50;3.22;;;36.40;52.20;;;;;;5051341;28;20025;-73
2021/06/18 16:22:11;;;;;;;8.10;3.25;;;36.30;51.90;;;;;;5044835;28;20064;-74
2021/06/18 16:24:38;;;;;;;6.47;3.47;;;36.00;51.70;;;;;;5052356;28;20332;-73
2021/06/18 16:27:06;;;;;;;6.40;3.55;;;36.10;52.30;;;;;;5052109;28;20040;-72
2021/06/18 16:29:32;;;;;;;6.13;3.10;;;36.20;52.80;;;;;;5051548;28;20024;-73
2021/06/18 16:32:00;;;;;;;5.13;3.13;;;36.10;51.30;;;;;;5063278;28;20020;-73
2021/06/18 16:34:26;;;;;;;10.32;3.95;;;35.90;52.20;;;;;;5073107;28;20016;-74
2021/06/18 16:36:52;;;;;;;6.28;3.33;;;35.60;52.60;;;;;;5073089;28;20150;-73
2021/06/18 16:39:19;;;;;;;4.82;3.03;;;35.20;54.40;;;;;;5071922;28;20537;-73
2021/06/18 16:41:44;;;;;;;7.45;3.70;;;34.90;55.60;;;;;;5059235;28;20032;-76
2021/06/18 16:44:10;;;;;;;7.35;3.83;;;34.70;56.80;;;;;;5050122;28;20368;-75
2021/06/18 16:46:36;;;;;;;5.47;3.78;;;34.50;59.90;;;;;;5133105;22;20039;-76
2021/06/18 16:49:02;;;;;;;8.20;3.35;;;34.20;61.20;;;;;;5132269;27;20103;-75
2021/06/18 16:51:27;;;;;;;4.32;3.63;;;34.00;62.30;;;;;;5129225;28;20458;-77
2021/06/18 16:53:53;;;;;;;13.15;3.78;;;33.80;63.10;;;;;;5114885;28;20090;-76
2021/06/18 16:56:19;;;;;;;6.55;3.55;;;33.60;63.60;;;;;;5141604;27;20031;-74
2021/06/18 16:58:46;;;;;;;5.03;3.63;;;33.20;63.40;;;;;;5147518;27;20326;-76
2021/06/18 17:01:12;;;;;;;5.20;3.95;;;32.80;65.50;;;;;;5140459;27;20015;-77
2021/06/18 17:03:38;;;;;;;7.88;4.57;;;32.50;66.50;;;;;;5140647;27;20034;-76
2021/06/18 17:06:07;;;;;;;8.43;4.50;;;32.20;67.20;;;;;;5142399;27;20103;-76
2021/06/18 17:08:36;;;;;;;6.05;4.30;;;31.90;68.80;;;;;;5140099;27;20019;-76
2021/06/18 17:11:03;;;;;;;7.65;4.13;;;31.60;69.30;;;;;;5137975;27;20024;-75
2021/06/18 17:13:54;;;;;;;6.40;4.22;;;31.30;70.30;;;;;;5135429;27;20041;-74
2021/06/18 17:16:20;;;;;;;8.60;4.38;;;31.20;71.60;;;;;;5135883;27;20023;-76
2021/06/18 17:18:46;;;;;;;6.82;4.75;;;31.00;71.90;;;;;;5136079;27;20023;-76
2021/06/18 17:21:15;;;;;;;8.60;4.90;;;30.80;72.60;;;;;;5133939;27;20027;-76
2021/06/18 17:23:42;;;;;;;4.93;4.50;;;30.70;74.10;;;;;;5135449;27;20031;-74
2021/06/18 17:26:07;;;;;;;9.90;6.20;;;30.50;74.20;;;;;;5135601;27;20449;-75
2021/06/18 17:28:33;;;;;;;30.60;18.17;;;30.20;74.70;;;;;;5117316;27;20035;-75
2021/06/18 17:31:00;;;;;;;27.80;16.13;;;30.00;75.20;;;;;;5101167;28;20017;-74
2021/06/18 17:33:26;;;;;;;21.00;15.38;;;29.90;75.00;;;;;;5104581;27;20023;-75
2021/06/18 17:35:55;;;;;;;16.95;11.50;;;29.80;75.90;;;;;;5127678;27;20102;-73
2021/06/18 17:38:21;;;;;;;11.68;7.00;;;29.60;76.80;;;;;;5129924;28;20079;-83
2021/06/18 17:40:47;;;;;;;22.17;14.68;;;29.60;77.50;;;;;;5123249;28;20016;-81
2021/06/18 17:43:13;;;;;;;11.63;6.53;;;29.40;78.00;;;;;;5135129;28;20027;-80
2021/06/18 17:45:39;;;;;;;9.10;5.40;;;29.30;79.00;;;;;;5118495;28;20034;-81
2021/06/18 17:48:05;;;;;;;6.03;4.63;;;29.30;78.90;;;;;;5122583;28;20021;-77
2021/06/18 17:50:31;;;;;;;12.93;6.95;;;29.20;78.70;;;;;;5127671;27;20023;-80
2021/06/18 17:52:57;;;;;;;7.68;5.28;;;29.10;78.30;;;;;;5133223;27;20029;-79
2021/06/18 17:55:23;;;;;;;8.45;5.35;;;29.10;78.80;;;;;;5132600;27;20455;-77
2021/06/18 17:57:51;;;;;;;8.20;5.25;;;29.10;79.70;;;;;;5115012;27;20027;-78
2021/06/18 18:00:18;;;;;;;7.22;5.30;;;29.20;80.60;;;;;;5104463;28;20036;-78
2021/06/18 18:02:44;;;;;;;5.93;4.72;;;29.20;81.30;;;;;;5128120;28;20020;-79
2021/06/18 18:05:10;;;;;;;5.93;4.75;;;29.30;80.80;;;;;;5138853;27;20049;-78
2021/06/18 18:07:37;;;;;;;7.28;5.20;;;29.40;81.10;;;;;;5125687;27;20058;-77
2021/06/18 18:10:05;;;;;;;8.98;5.70;;;29.30;80.70;;;;;;5128805;27;20077;-79
2021/06/18 18:12:30;;;;;;;8.05;5.07;;;29.30;80.80;;;;;;5124425;27;20016;-79
2021/06/18 18:14:56;;;;;;;11.07;4.57;;;29.30;81.90;;;;;;5121756;27;20092;-78
2021/06/18 18:17:22;;;;;;;9.95;5.65;;;29.20;82.60;;;;;;5131188;27;20598;-77
2021/06/18 18:19:47;;;;;;;12.82;5.20;;;29.10;82.50;;;;;;5121607;27;20072;-78
2021/06/18 18:22:13;;;;;;;7.60;5.63;;;29.10;83.20;;;;;;5126064;27;20049;-78
2021/06/18 18:24:41;;;;;;;8.07;5.65;;;29.10;82.90;;;;;;5131298;27;20065;-79
2021/06/18 18:27:07;;;;;;;8.98;5.18;;;29.00;83.10;;;;;;5128103;27;20047;-78
2021/06/18 18:29:33;;;;;;;10.07;5.15;;;28.90;83.20;;;;;;5133015;27;20035;-80
2021/06/18 18:31:59;;;;;;;10.30;5.53;;;28.80;83.50;;;;;;5130530;27;20050;-78
2021/06/18 18:34:25;;;;;;;8.35;4.90;;;28.70;84.90;;;;;;5122488;27;20015;-78
2021/06/18 18:36:54;;;;;;;7.93;5.35;;;28.70;85.50;;;;;;5133933;27;20023;-80
2021/06/18 18:39:20;;;;;;;7.40;4.95;;;28.70;86.50;;;;;;5121206;27;20020;-78
2021/06/18 18:41:46;;;;;;;15.60;5.65;;;28.60;85.90;;;;;;5131305;27;20096;-79
2021/06/18 18:44:30;;;;;;;8.55;5.20;;;28.30;86.70;;;;;;5127487;27;20070;-78
2021/06/18 18:46:56;;;;;;;12.65;5.68;;;28.30;87.60;;;;;;5144653;27;20027;-79
2021/06/18 18:49:22;;;;;;;9.95;6.50;;;28.20;88.80;;;;;;5130308;27;20084;-76
2021/06/18 18:51:52;;;;;;;13.55;6.70;;;28.00;85.70;;;;;;5123080;27;20503;-78